Aviation Digital Data Service (ADDS)

Output produced by METARs form (0040 UTC 20 April 2019)
found at http://www.aviationweather.gov/metar/data/
 
METAR text: DRZA 191800Z 12014KT 8000 NSC 35/07 Q1012
Conditions at: DRZA (AGADEZ SOUTH (MI, NE) observed 1800 UTC 19 April 2019
Temperature: 35.0°C (95°F)
Dewpoint: 7.0°C (45°F) [RH = 18%]
Pressure (altimeter): 29.88 inches Hg (1012.0 mb)
Winds: from the ESE (120 degrees) at 16 MPH (14 knots; 7.2 m/s)
Visibility: 5 miles ( 8 km)
Ceiling: at least 12,000 feet AGL
Clouds: sky clear below 12,000 feet AGL
Weather: no significant weather observed at this time

METAR text: DRZA 191700Z 12014KT 8000 NSC 36/06 Q1012
Conditions at: DRZA (AGADEZ SOUTH (MI, NE) observed 1700 UTC 19 April 2019
Temperature: 36.0°C (97°F)
Dewpoint: 6.0°C (43°F) [RH = 16%]
Pressure (altimeter): 29.88 inches Hg (1012.0 mb)
Winds: from the ESE (120 degrees) at 16 MPH (14 knots; 7.2 m/s)
Visibility: 5 miles ( 8 km)
Ceiling: at least 12,000 feet AGL
Clouds: sky clear below 12,000 feet AGL
Weather: no significant weather observed at this time

METAR text: DRZA 191600Z 10008KT 8000 NSC 37/05 Q1012
Conditions at: DRZA (AGADEZ SOUTH (MI, NE) observed 1600 UTC 19 April 2019
Temperature: 37.0°C (99°F)
Dewpoint: 5.0°C (41°F) [RH = 14%]
Pressure (altimeter): 29.88 inches Hg (1012.0 mb)
Winds: from the E (100 degrees) at 9 MPH (8 knots; 4.1 m/s)
Visibility: 5 miles ( 8 km)
Ceiling: at least 12,000 feet AGL
Clouds: sky clear below 12,000 feet AGL
Weather: no significant weather observed at this time

METAR text: DRZA 191500Z 12010KT 6000 NSC 38/06 Q1012
Conditions at: DRZA (AGADEZ SOUTH (MI, NE) observed 1500 UTC 19 April 2019
Temperature: 38.0°C (100°F)
Dewpoint: 6.0°C (43°F) [RH = 14%]
Pressure (altimeter): 29.88 inches Hg (1012.0 mb)
Winds: from the ESE (120 degrees) at 12 MPH (10 knots; 5.1 m/s)
Visibility: 4 miles ( 6 km)
Ceiling: at least 12,000 feet AGL
Clouds: sky clear below 12,000 feet AGL
Weather: no significant weather observed at this time

METAR text: DRZA 191400Z 12010KT 6000 NSC 38/05 Q1012
Conditions at: DRZA (AGADEZ SOUTH (MI, NE) observed 1400 UTC 19 April 2019
Temperature: 38.0°C (100°F)
Dewpoint: 5.0°C (41°F) [RH = 13%]
Pressure (altimeter): 29.88 inches Hg (1012.0 mb)
Winds: from the ESE (120 degrees) at 12 MPH (10 knots; 5.1 m/s)
Visibility: 4 miles ( 6 km)
Ceiling: at least 12,000 feet AGL
Clouds: sky clear below 12,000 feet AGL
Weather: no significant weather observed at this time

METAR text: DRZA 191300Z 12010KT 6000 NSC 37/05 Q1013
Conditions at: DRZA (AGADEZ SOUTH (MI, NE) observed 1300 UTC 19 April 2019
Temperature: 37.0°C (99°F)
Dewpoint: 5.0°C (41°F) [RH = 14%]
Pressure (altimeter): 29.91 inches Hg (1013.0 mb)
Winds: from the ESE (120 degrees) at 12 MPH (10 knots; 5.1 m/s)
Visibility: 4 miles ( 6 km)
Ceiling: at least 12,000 feet AGL
Clouds: sky clear below 12,000 feet AGL
Weather: no significant weather observed at this time

METAR text: DRZA 191200Z 12014KT 6000 NSC 37/06 Q1014
Conditions at: DRZA (AGADEZ SOUTH (MI, NE) observed 1200 UTC 19 April 2019
Temperature: 37.0°C (99°F)
Dewpoint: 6.0°C (43°F) [RH = 15%]
Pressure (altimeter): 29.94 inches Hg (1014.0 mb)
Winds: from the ESE (120 degrees) at 16 MPH (14 knots; 7.2 m/s)
Visibility: 4 miles ( 6 km)
Ceiling: at least 12,000 feet AGL
Clouds: sky clear below 12,000 feet AGL
Weather: no significant weather observed at this time

METAR text: DRZA 191100Z 12010KT 8000 NSC 37/05 Q1015
Conditions at: DRZA (AGADEZ SOUTH (MI, NE) observed 1100 UTC 19 April 2019
Temperature: 37.0°C (99°F)
Dewpoint: 5.0°C (41°F) [RH = 14%]
Pressure (altimeter): 29.97 inches Hg (1015.0 mb)
Winds: from the ESE (120 degrees) at 12 MPH (10 knots; 5.1 m/s)
Visibility: 5 miles ( 8 km)
Ceiling: at least 12,000 feet AGL
Clouds: sky clear below 12,000 feet AGL
Weather: no significant weather observed at this time

METAR text: DRZA 191000Z 12014KT 8000 NSC 36/08 Q1015
Conditions at: DRZA (AGADEZ SOUTH (MI, NE) observed 1000 UTC 19 April 2019
Temperature: 36.0°C (97°F)
Dewpoint: 8.0°C (46°F) [RH = 18%]
Pressure (altimeter): 29.97 inches Hg (1015.0 mb)
Winds: from the ESE (120 degrees) at 16 MPH (14 knots; 7.2 m/s)
Visibility: 5 miles ( 8 km)
Ceiling: at least 12,000 feet AGL
Clouds: sky clear below 12,000 feet AGL
Weather: no significant weather observed at this time

METAR text: DRZA 190900Z 12016KT CAVOK 35/07 Q1015
Conditions at: DRZA (AGADEZ SOUTH (MI, NE) observed 0900 UTC 19 April 2019
Temperature: 35.0°C (95°F)
Dewpoint: 7.0°C (45°F) [RH = 18%]
Pressure (altimeter): 29.97 inches Hg (1015.0 mb)
Winds: from the ESE (120 degrees) at 18 MPH (16 knots; 8.2 m/s)
Visibility: 6 or more miles (10+ km)
Ceiling: ceiling and visibility are OK
Clouds: unknown
Weather: no significant weather observed at this time

METAR text: DRZA 190800Z 12016KT CAVOK 32/05 Q1015
Conditions at: DRZA (AGADEZ SOUTH (MI, NE) observed 0800 UTC 19 April 2019
Temperature: 32.0°C (90°F)
Dewpoint: 5.0°C (41°F) [RH = 18%]
Pressure (altimeter): 29.97 inches Hg (1015.0 mb)
Winds: from the ESE (120 degrees) at 18 MPH (16 knots; 8.2 m/s)
Visibility: 6 or more miles (10+ km)
Ceiling: ceiling and visibility are OK
Clouds: unknown
Weather: no significant weather observed at this time

METAR text: DRZA 190700Z 12008KT CAVOK 27/06 Q1014
Conditions at: DRZA (AGADEZ SOUTH (MI, NE) observed 0700 UTC 19 April 2019
Temperature: 27.0°C (81°F)
Dewpoint: 6.0°C (43°F) [RH = 26%]
Pressure (altimeter): 29.94 inches Hg (1014.0 mb)
Winds: from the ESE (120 degrees) at 9 MPH (8 knots; 4.1 m/s)
Visibility: 6 or more miles (10+ km)
Ceiling: ceiling and visibility are OK
Clouds: unknown
Weather: no significant weather observed at this time

METAR text: DRZA 190600Z 10004KT CAVOK 23/02 Q1013
Conditions at: DRZA (AGADEZ SOUTH (MI, NE) observed 0600 UTC 19 April 2019
Temperature: 23.0°C (73°F)
Dewpoint: 2.0°C (36°F) [RH = 25%]
Pressure (altimeter): 29.91 inches Hg (1013.0 mb)
Winds: from the E (100 degrees) at 5 MPH (4 knots; 2.1 m/s)
Visibility: 6 or more miles (10+ km)
Ceiling: ceiling and visibility are OK
Clouds: unknown
Weather: no significant weather observed at this time

METAR text: DRZA 190500Z 10006KT CAVOK 22/01 Q1013
Conditions at: DRZA (AGADEZ SOUTH (MI, NE) observed 0500 UTC 19 April 2019
Temperature: 22.0°C (72°F)
Dewpoint: 1.0°C (34°F) [RH = 25%]
Pressure (altimeter): 29.91 inches Hg (1013.0 mb)
Winds: from the E (100 degrees) at 7 MPH (6 knots; 3.1 m/s)
Visibility: 6 or more miles (10+ km)
Ceiling: ceiling and visibility are OK
Clouds: unknown
Weather: no significant weather observed at this time

METAR text: DRZA 181800Z 12010KT 8000 NSC 35/07 Q1011
Conditions at: DRZA (AGADEZ SOUTH (MI, NE) observed 1800 UTC 18 April 2019
Temperature: 35.0°C (95°F)
Dewpoint: 7.0°C (45°F) [RH = 18%]
Pressure (altimeter): 29.85 inches Hg (1011.0 mb)
Winds: from the ESE (120 degrees) at 12 MPH (10 knots; 5.1 m/s)
Visibility: 5 miles ( 8 km)
Ceiling: at least 12,000 feet AGL
Clouds: sky clear below 12,000 feet AGL
Weather: no significant weather observed at this time

METAR text: DRZA 181700Z 12010KT 8000 NSC 36/08 Q1011
Conditions at: DRZA (AGADEZ SOUTH (MI, NE) observed 1700 UTC 18 April 2019
Temperature: 36.0°C (97°F)
Dewpoint: 8.0°C (46°F) [RH = 18%]
Pressure (altimeter): 29.85 inches Hg (1011.0 mb)
Winds: from the ESE (120 degrees) at 12 MPH (10 knots; 5.1 m/s)
Visibility: 5 miles ( 8 km)
Ceiling: at least 12,000 feet AGL
Clouds: sky clear below 12,000 feet AGL
Weather: no significant weather observed at this time

METAR text: DRZA 181600Z 12010KT 7000 NSC 37/07 Q1011
Conditions at: DRZA (AGADEZ SOUTH (MI, NE) observed 1600 UTC 18 April 2019
Temperature: 37.0°C (99°F)
Dewpoint: 7.0°C (45°F) [RH = 16%]
Pressure (altimeter): 29.85 inches Hg (1011.0 mb)
Winds: from the ESE (120 degrees) at 12 MPH (10 knots; 5.1 m/s)
Visibility: 4 miles ( 7 km)
Ceiling: at least 12,000 feet AGL
Clouds: sky clear below 12,000 feet AGL
Weather: no significant weather observed at this time

METAR text: DRZA 181500Z 12010KT 7000 NSC 38/06 Q1011
Conditions at: DRZA (AGADEZ SOUTH (MI, NE) observed 1500 UTC 18 April 2019
Temperature: 38.0°C (100°F)
Dewpoint: 6.0°C (43°F) [RH = 14%]
Pressure (altimeter): 29.85 inches Hg (1011.0 mb)
Winds: from the ESE (120 degrees) at 12 MPH (10 knots; 5.1 m/s)
Visibility: 4 miles ( 7 km)
Ceiling: at least 12,000 feet AGL
Clouds: sky clear below 12,000 feet AGL
Weather: no significant weather observed at this time

METAR text: DRZA 181400Z 12004KT 7000 NSC 38/07 Q1012
Conditions at: DRZA (AGADEZ SOUTH (MI, NE) observed 1400 UTC 18 April 2019
Temperature: 38.0°C (100°F)
Dewpoint: 7.0°C (45°F) [RH = 15%]
Pressure (altimeter): 29.88 inches Hg (1012.0 mb)
Winds: from the ESE (120 degrees) at 5 MPH (4 knots; 2.1 m/s)
Visibility: 4 miles ( 7 km)
Ceiling: at least 12,000 feet AGL
Clouds: sky clear below 12,000 feet AGL
Weather: no significant weather observed at this time

METAR text: DRZA 181300Z 10006KT 7000 NSC 37/08 Q1012
Conditions at: DRZA (AGADEZ SOUTH (MI, NE) observed 1300 UTC 18 April 2019
Temperature: 37.0°C (99°F)
Dewpoint: 8.0°C (46°F) [RH = 17%]
Pressure (altimeter): 29.88 inches Hg (1012.0 mb)
Winds: from the E (100 degrees) at 7 MPH (6 knots; 3.1 m/s)
Visibility: 4 miles ( 7 km)
Ceiling: at least 12,000 feet AGL
Clouds: sky clear below 12,000 feet AGL
Weather: no significant weather observed at this time

Forecast for: DRZA (AGADEZ SOUTH (MI, NE)
Text: TAF DRZA 192300Z 2000/2024 12010KT 8000 NSC
Forecast period: 0000 UTC 20 April 2019 to 0000 UTC 21 April 2019
Forecast type: FROM: standard forecast or significant change
Winds: from the ESE (120 degrees) at 12 MPH (10 knots; 5.1 m/s)
Visibility: 5 miles (8 km)
Ceiling: unknown
Clouds: missing
Weather: no significant weather forecast for this period
Text: TEMPO 2008/2014 12020KT 3500 BLDU
Forecast period: 0800 to 1400 UTC 20 April 2019
Forecast type: TEMPORARY: The following changes expected for less than half the time period
Winds: from the ESE (120 degrees) at 23 MPH (20 knots; 10.3 m/s)
Visibility: 2.17 miles (3.49 km)
Ceiling: unknown
Clouds: missing
Weather: BLDU  (blowing dust)